Time;durP1;ratioP1;P1;durP2;ratioP2;P2;SDS_P1;SDS_P2;PMS_P1;PMS_P2;Temp;Humidity;BMP_temperature;BMP_pressure;BME280_temperature;BME280_humidity;BME280_pressure;Samples;Min_cycle;Max_cycle;Signal;HPM_P1;HPM_P2
2021/11/14 00:01:57;;;;;;;21.58;10.63;;;;;;;;;;5030624;28;20481;-64
2021/11/14 00:04:23;;;;;;;20.55;10.07;;;;;;;;;;5033612;28;20472;-65
2021/11/14 00:06:49;;;;;;;23.00;10.23;;;;;;;;;;5033723;28;20056;-65
2021/11/14 00:09:15;;;;;;;21.77;10.88;;;;;;;;;;5033133;28;20030;-65
2021/11/14 00:11:42;;;;;;;22.27;11.23;;;;;;;;;;5033141;28;20025;-65
2021/11/14 00:14:08;;;;;;;23.02;11.70;;;;;;;;;;5033292;28;20018;-65
2021/11/14 00:16:34;;;;;;;24.27;11.13;;;;;;;;;;5029072;28;20018;-65
2021/11/14 00:19:00;;;;;;;24.85;11.60;;;;;;;;;;5030060;28;20036;-64
2021/11/14 00:21:28;;;;;;;23.08;11.32;;;;;;;;;;5031017;28;20114;-64
2021/11/14 00:23:55;;;;;;;23.05;11.82;;;;;;;;;;5031593;28;20123;-64
2021/11/14 00:26:21;;;;;;;21.50;10.95;;;;;;;;;;5032986;28;20031;-65
2021/11/14 00:28:48;;;;;;;23.13;11.63;;;;;;;;;;5031741;28;20025;-65
2021/11/14 00:31:15;;;;;;;24.98;11.30;;;;;;;;;;5031736;28;20029;-65
2021/11/14 00:33:43;;;;;;;21.60;10.52;;;;;;;;;;5031583;28;20408;-65
2021/11/14 00:36:13;;;;;;;23.65;11.75;;;;;;;;;;5032056;28;20021;-64
2021/11/14 00:38:40;;;;;;;23.52;11.25;;;;;;;;;;5033031;28;20033;-65
2021/11/14 00:41:07;;;;;;;26.33;11.82;;;;;;;;;;5033070;28;20025;-65
2021/11/14 00:43:33;;;;;;;25.53;11.87;;;;;;;;;;5032349;28;20029;-65
2021/11/14 00:46:00;;;;;;;25.83;12.25;;;;;;;;;;5031518;28;20036;-65
2021/11/14 00:48:26;;;;;;;24.70;11.88;;;;;;;;;;5032730;28;20087;-67
2021/11/14 00:50:52;;;;;;;26.20;12.88;;;;;;;;;;5031497;28;20032;-65
2021/11/14 00:53:18;;;;;;;28.83;12.88;;;;;;;;;;5031163;28;20106;-65
2021/11/14 00:55:45;;;;;;;29.63;13.50;;;;;;;;;;5031009;28;20032;-65
2021/11/14 00:58:11;;;;;;;27.55;13.75;;;;;;;;;;5032692;28;20038;-65
2021/11/14 01:00:38;;;;;;;26.83;12.45;;;;;;;;;;5032441;28;20033;-65
2021/11/14 01:03:05;;;;;;;27.00;11.77;;;;;;;;;;5031308;28;20112;-65
2021/11/14 01:05:32;;;;;;;27.67;12.70;;;;;;;;;;5032431;28;20026;-64
2021/11/14 01:07:58;;;;;;;101.38;70.50;;;;;;;;;;5030898;28;20116;-64
2021/11/14 01:10:26;;;;;;;63.28;45.50;;;;;;;;;;5032283;28;20021;-65
2021/11/14 01:12:53;;;;;;;27.25;15.13;;;;;;;;;;5032013;28;20473;-65
2021/11/14 01:15:19;;;;;;;30.15;12.90;;;;;;;;;;5032289;28;20040;-65
2021/11/14 01:17:45;;;;;;;29.63;13.23;;;;;;;;;;5030998;28;20021;-65
2021/11/14 01:20:13;;;;;;;29.50;14.52;;;;;;;;;;5030409;28;20037;-64
2021/11/14 01:22:40;;;;;;;28.63;13.65;;;;;;;;;;5031053;28;20440;-65
2021/11/14 01:25:06;;;;;;;32.35;15.40;;;;;;;;;;5030978;28;20401;-65
2021/11/14 01:27:32;;;;;;;28.25;14.55;;;;;;;;;;5030634;28;20025;-65
2021/11/14 01:29:59;;;;;;;29.48;14.85;;;;;;;;;;5030565;28;20033;-65
2021/11/14 01:32:25;;;;;;;29.90;14.68;;;;;;;;;;5030565;28;20401;-64
2021/11/14 01:34:51;;;;;;;32.55;16.35;;;;;;;;;;5030802;28;20049;-64
2021/11/14 01:37:17;;;;;;;30.52;15.95;;;;;;;;;;5031927;28;20029;-64
2021/11/14 01:39:43;;;;;;;30.27;15.70;;;;;;;;;;5030555;28;20048;-64
2021/11/14 01:42:09;;;;;;;33.78;15.60;;;;;;;;;;5030330;28;20631;-64
2021/11/14 01:44:35;;;;;;;33.17;16.30;;;;;;;;;;5032090;28;20443;-64
2021/11/14 01:47:01;;;;;;;30.52;15.75;;;;;;;;;;5032394;28;20053;-64
2021/11/14 01:49:27;;;;;;;32.95;16.27;;;;;;;;;;5032272;28;20025;-65
2021/11/14 01:51:53;;;;;;;33.65;17.48;;;;;;;;;;5032063;28;20025;-62
2021/11/14 01:54:20;;;;;;;34.72;18.30;;;;;;;;;;5030896;28;20029;-64
2021/11/14 01:56:47;;;;;;;32.90;15.70;;;;;;;;;;5031061;28;20045;-64
2021/11/14 01:59:14;;;;;;;35.40;17.48;;;;;;;;;;5032958;28;20358;-64
2021/11/14 02:01:40;;;;;;;34.38;17.40;;;;;;;;;;5030482;28;20037;-64
2021/11/14 02:04:07;;;;;;;37.03;17.58;;;;;;;;;;5032334;28;20076;-65
2021/11/14 02:06:34;;;;;;;33.63;16.73;;;;;;;;;;5030283;28;20034;-64
2021/11/14 02:09:00;;;;;;;32.95;16.23;;;;;;;;;;5031864;28;20605;-64
2021/11/14 02:11:27;;;;;;;32.55;15.65;;;;;;;;;;5029955;28;20029;-64
2021/11/14 02:13:53;;;;;;;32.00;16.63;;;;;;;;;;5031364;28;20018;-64
2021/11/14 02:16:21;;;;;;;34.60;16.45;;;;;;;;;;5031661;28;20028;-64
2021/11/14 02:18:47;;;;;;;35.80;17.13;;;;;;;;;;5031414;28;20030;-64
2021/11/14 02:21:13;;;;;;;35.00;17.40;;;;;;;;;;5029914;28;20033;-64
2021/11/14 02:23:39;;;;;;;34.92;16.17;;;;;;;;;;5031311;28;20025;-65
2021/11/14 02:26:06;;;;;;;33.40;16.73;;;;;;;;;;5030188;28;20064;-64
2021/11/14 02:28:32;;;;;;;35.53;16.10;;;;;;;;;;5030360;28;20032;-63
2021/11/14 02:30:59;;;;;;;33.70;16.27;;;;;;;;;;5030938;28;20442;-64
2021/11/14 02:33:26;;;;;;;30.98;14.68;;;;;;;;;;5031150;28;20100;-64
2021/11/14 02:35:54;;;;;;;31.88;15.60;;;;;;;;;;5030173;28;20025;-64
2021/11/14 02:38:21;;;;;;;31.85;16.27;;;;;;;;;;5031530;28;20033;-63
2021/11/14 02:40:47;;;;;;;31.83;15.85;;;;;;;;;;5031333;28;20484;-64
2021/11/14 02:43:14;;;;;;;33.60;15.82;;;;;;;;;;5030355;28;20052;-64
2021/11/14 02:45:40;;;;;;;34.25;16.20;;;;;;;;;;5033979;28;20036;-64
2021/11/14 02:48:07;;;;;;;35.83;17.08;;;;;;;;;;5035018;28;20512;-64
2021/11/14 02:50:34;;;;;;;37.25;16.65;;;;;;;;;;5033232;28;20485;-64
2021/11/14 02:53:00;;;;;;;35.05;16.88;;;;;;;;;;5033269;28;20072;-64
2021/11/14 02:55:27;;;;;;;35.05;15.25;;;;;;;;;;5033317;28;20025;-64
2021/11/14 02:57:54;;;;;;;35.03;15.63;;;;;;;;;;5033432;28;20477;-64
2021/11/14 03:00:22;;;;;;;33.03;16.00;;;;;;;;;;5033379;28;20437;-64
2021/11/14 03:02:49;;;;;;;29.07;14.73;;;;;;;;;;5033349;28;20057;-64
2021/11/14 03:05:16;;;;;;;28.55;14.65;;;;;;;;;;5033306;28;20029;-64
2021/11/14 03:07:42;;;;;;;29.27;14.25;;;;;;;;;;5032852;28;20077;-65
2021/11/14 03:10:09;;;;;;;34.17;14.45;;;;;;;;;;5033151;28;20030;-64
2021/11/14 03:12:36;;;;;;;29.60;15.32;;;;;;;;;;5032468;28;20384;-64
2021/11/14 03:15:04;;;;;;;31.45;15.52;;;;;;;;;;5033179;28;20030;-62
2021/11/14 03:17:30;;;;;;;31.02;14.95;;;;;;;;;;5034353;28;20034;-64
2021/11/14 03:19:56;;;;;;;32.80;14.70;;;;;;;;;;5032883;28;20339;-64
2021/11/14 03:22:22;;;;;;;30.80;15.80;;;;;;;;;;5033741;28;20095;-65
2021/11/14 03:24:48;;;;;;;30.10;15.13;;;;;;;;;;5032984;28;20025;-63
2021/11/14 03:27:15;;;;;;;33.65;15.27;;;;;;;;;;5032950;28;20025;-65
2021/11/14 03:29:41;;;;;;;37.03;16.00;;;;;;;;;;5034109;28;21466;-65
2021/11/14 03:32:10;;;;;;;34.75;17.60;;;;;;;;;;5033741;28;20028;-65
2021/11/14 03:34:36;;;;;;;31.15;16.67;;;;;;;;;;5033303;28;20024;-64
2021/11/14 03:37:10;;;;;;;37.92;17.10;;;;;;;;;;5033989;28;20091;-64
2021/11/14 03:39:36;;;;;;;34.05;16.20;;;;;;;;;;5032598;28;20025;-64
2021/11/14 03:42:02;;;;;;;35.55;16.42;;;;;;;;;;5032333;28;20489;-64
2021/11/14 03:44:28;;;;;;;33.60;16.00;;;;;;;;;;5033537;28;20025;-64
2021/11/14 03:46:54;;;;;;;31.88;17.15;;;;;;;;;;5032363;28;20188;-64
2021/11/14 03:49:20;;;;;;;32.53;15.95;;;;;;;;;;5032481;28;20034;-64
2021/11/14 03:51:46;;;;;;;32.65;15.82;;;;;;;;;;5033788;28;20109;-64
2021/11/14 03:54:12;;;;;;;36.83;16.85;;;;;;;;;;5032423;28;20056;-64
2021/11/14 03:56:38;;;;;;;38.47;18.27;;;;;;;;;;5031404;28;20029;-65
2021/11/14 03:59:04;;;;;;;38.47;16.17;;;;;;;;;;5031958;28;20405;-64
2021/11/14 04:01:30;;;;;;;31.48;17.27;;;;;;;;;;5031909;28;20052;-64
2021/11/14 04:03:56;;;;;;;38.10;18.63;;;;;;;;;;5033406;28;20029;-64
2021/11/14 04:06:23;;;;;;;38.00;18.20;;;;;;;;;;5032187;28;20123;-64
2021/11/14 04:08:49;;;;;;;35.38;17.92;;;;;;;;;;5033462;28;20094;-64
2021/11/14 04:11:16;;;;;;;40.00;18.38;;;;;;;;;;5033065;28;20047;-63
2021/11/14 04:13:42;;;;;;;39.13;18.27;;;;;;;;;;5033279;28;20108;-64
2021/11/14 04:16:08;;;;;;;37.53;18.77;;;;;;;;;;5031910;28;20017;-65
2021/11/14 04:18:35;;;;;;;40.92;18.33;;;;;;;;;;5031745;28;20029;-65
2021/11/14 04:21:01;;;;;;;38.85;17.33;;;;;;;;;;5031987;28;20026;-64
2021/11/14 04:23:27;;;;;;;36.70;17.90;;;;;;;;;;5030822;28;20036;-64
2021/11/14 04:25:54;;;;;;;39.03;18.33;;;;;;;;;;5033129;28;20477;-64
2021/11/14 04:28:20;;;;;;;40.08;18.60;;;;;;;;;;5031650;28;20514;-64
2021/11/14 04:30:47;;;;;;;39.90;19.42;;;;;;;;;;5033009;28;20030;-64
2021/11/14 04:33:13;;;;;;;41.10;18.00;;;;;;;;;;5032927;28;20025;-64
2021/11/14 04:35:39;;;;;;;43.10;18.88;;;;;;;;;;5031590;28;20552;-64
2021/11/14 04:38:05;;;;;;;35.78;18.50;;;;;;;;;;5031445;28;20033;-64
2021/11/14 04:40:35;;;;;;;40.08;19.33;;;;;;;;;;5031615;28;20029;-64
2021/11/14 04:43:01;;;;;;;42.67;19.23;;;;;;;;;;5031317;28;20026;-64
2021/11/14 04:45:27;;;;;;;38.15;18.15;;;;;;;;;;5031885;28;20381;-64
2021/11/14 04:47:53;;;;;;;39.13;18.45;;;;;;;;;;5030977;28;20022;-64
2021/11/14 04:50:21;;;;;;;33.42;18.23;;;;;;;;;;5032263;28;20026;-65
2021/11/14 04:52:47;;;;;;;37.60;19.00;;;;;;;;;;5031189;28;20036;-64
2021/11/14 04:55:13;;;;;;;37.03;18.58;;;;;;;;;;5031663;28;20075;-64
2021/11/14 04:57:39;;;;;;;39.10;19.73;;;;;;;;;;5033160;28;20064;-65
2021/11/14 05:00:07;;;;;;;38.05;19.77;;;;;;;;;;5032430;28;20052;-64
2021/11/14 05:02:33;;;;;;;35.63;16.90;;;;;;;;;;5031667;28;20485;-64
2021/11/14 05:04:59;;;;;;;37.05;17.80;;;;;;;;;;5031364;28;20025;-64
2021/11/14 05:07:25;;;;;;;36.63;16.88;;;;;;;;;;5032439;28;20025;-65
2021/11/14 05:09:51;;;;;;;41.40;20.80;;;;;;;;;;5032288;28;20037;-64
2021/11/14 05:12:17;;;;;;;36.13;18.05;;;;;;;;;;5031644;28;20025;-64
2021/11/14 05:14:43;;;;;;;36.17;18.27;;;;;;;;;;5031076;28;20374;-64
2021/11/14 05:17:09;;;;;;;37.67;17.75;;;;;;;;;;5031060;28;20117;-64
2021/11/14 05:19:35;;;;;;;35.65;18.33;;;;;;;;;;5030701;28;20404;-64
2021/11/14 05:22:01;;;;;;;37.17;18.33;;;;;;;;;;5031939;28;20026;-64
2021/11/14 05:24:27;;;;;;;34.38;17.80;;;;;;;;;;5031787;28;20052;-64
2021/11/14 05:26:54;;;;;;;36.17;18.55;;;;;;;;;;5032026;28;20048;-64
2021/11/14 05:29:20;;;;;;;34.30;17.75;;;;;;;;;;5032003;28;20092;-64
2021/11/14 05:31:46;;;;;;;35.45;17.20;;;;;;;;;;5030389;28;20025;-64
2021/11/14 05:34:12;;;;;;;33.13;17.35;;;;;;;;;;5032065;28;20029;-64
2021/11/14 05:36:38;;;;;;;35.17;17.40;;;;;;;;;;5031723;28;20033;-64
2021/11/14 05:39:04;;;;;;;30.92;17.73;;;;;;;;;;5030813;28;20030;-64
2021/11/14 05:41:30;;;;;;;32.03;16.98;;;;;;;;;;5031743;28;20026;-64
2021/11/14 05:43:56;;;;;;;32.45;16.45;;;;;;;;;;5030314;28;20488;-64
2021/11/14 05:46:22;;;;;;;36.08;16.63;;;;;;;;;;5031651;28;20035;-64
2021/11/14 05:48:48;;;;;;;31.17;17.00;;;;;;;;;;5031919;28;20466;-64
2021/11/14 05:51:14;;;;;;;30.00;15.60;;;;;;;;;;5030356;28;20017;-64
2021/11/14 05:53:40;;;;;;;35.10;17.10;;;;;;;;;;5030313;28;20362;-64
2021/11/14 05:56:06;;;;;;;31.13;16.60;;;;;;;;;;5031776;28;20036;-64
2021/11/14 06:01:12;;;;;;;33.47;18.33;;;;;;;;;;5066173;22;20040;-67
2021/11/14 06:06:05;;;;;;;73.38;47.90;;;;;;;;;;5070537;28;20028;-66
2021/11/14 06:08:31;;;;;;;79.72;51.90;;;;;;;;;;5052811;28;20122;-66
2021/11/14 06:10:58;;;;;;;63.95;42.22;;;;;;;;;;5051945;28;20021;-66
2021/11/14 06:13:25;;;;;;;60.67;37.55;;;;;;;;;;5050287;28;20028;-66
2021/11/14 06:15:52;;;;;;;57.28;35.97;;;;;;;;;;5050342;28;20077;-66
2021/11/14 06:18:18;;;;;;;38.97;24.13;;;;;;;;;;5049991;28;20078;-66
2021/11/14 06:20:44;;;;;;;35.28;20.88;;;;;;;;;;5054279;28;20392;-65
2021/11/14 06:23:10;;;;;;;31.35;16.38;;;;;;;;;;5045514;28;20448;-65
2021/11/14 06:25:36;;;;;;;32.63;16.83;;;;;;;;;;5034383;28;20112;-65
2021/11/14 06:28:03;;;;;;;31.13;17.08;;;;;;;;;;5032991;28;20022;-65
2021/11/14 06:30:29;;;;;;;31.38;16.73;;;;;;;;;;5032817;28;20064;-65
2021/11/14 06:32:56;;;;;;;29.00;17.35;;;;;;;;;;5032534;28;20056;-65
2021/11/14 06:35:22;;;;;;;32.50;18.13;;;;;;;;;;5045194;28;20405;-64
2021/11/14 06:37:48;;;;;;;30.05;15.98;;;;;;;;;;5051511;28;20032;-66
2021/11/14 06:40:15;;;;;;;30.33;15.95;;;;;;;;;;5052369;28;20035;-66
2021/11/14 06:42:41;;;;;;;29.75;17.25;;;;;;;;;;5052516;28;20040;-67
2021/11/14 06:45:07;;;;;;;29.38;16.33;;;;;;;;;;5053153;28;20025;-68
2021/11/14 06:47:34;;;;;;;33.72;17.48;;;;;;;;;;5053717;28;20029;-67
2021/11/14 06:50:00;;;;;;;29.83;17.30;;;;;;;;;;5048403;28;20052;-67
2021/11/14 06:52:26;;;;;;;34.13;17.52;;;;;;;;;;5033480;28;20022;-68
2021/11/14 06:54:52;;;;;;;28.52;15.70;;;;;;;;;;5033645;28;20127;-66
2021/11/14 06:57:19;;;;;;;32.13;17.45;;;;;;;;;;5041724;28;20384;-68
2021/11/14 06:59:45;;;;;;;31.38;15.77;;;;;;;;;;5052164;28;20583;-66
2021/11/14 07:02:11;;;;;;;31.77;16.33;;;;;;;;;;5051996;28;20040;-66
2021/11/14 07:04:37;;;;;;;30.23;16.00;;;;;;;;;;5052446;28;20376;-67
2021/11/14 07:07:04;;;;;;;29.90;15.18;;;;;;;;;;5053382;28;20052;-67
2021/11/14 07:09:30;;;;;;;30.13;16.17;;;;;;;;;;5050030;28;20029;-67
2021/11/14 07:11:56;;;;;;;30.85;17.88;;;;;;;;;;5051572;28;20111;-66
2021/11/14 07:14:23;;;;;;;30.23;15.98;;;;;;;;;;5053630;28;20096;-66
2021/11/14 07:16:49;;;;;;;29.02;15.85;;;;;;;;;;5053122;28;20420;-67
2021/11/14 07:19:15;;;;;;;30.23;16.73;;;;;;;;;;5037910;28;20037;-66
2021/11/14 07:21:41;;;;;;;29.25;14.45;;;;;;;;;;5051596;28;20032;-67
2021/11/14 07:24:08;;;;;;;30.30;15.52;;;;;;;;;;5051762;28;20024;-66
2021/11/14 07:26:34;;;;;;;27.60;15.20;;;;;;;;;;5051577;28;20412;-67
2021/11/14 07:29:00;;;;;;;29.13;15.18;;;;;;;;;;5052837;28;20021;-67
2021/11/14 07:31:26;;;;;;;30.38;16.85;;;;;;;;;;5044361;28;20029;-67
2021/11/14 07:33:52;;;;;;;33.40;17.23;;;;;;;;;;5032864;28;20396;-67
2021/11/14 07:36:18;;;;;;;31.70;16.60;;;;;;;;;;5034683;28;20394;-67
2021/11/14 07:38:44;;;;;;;30.77;17.48;;;;;;;;;;5052540;28;20047;-66
2021/11/14 07:41:10;;;;;;;33.42;17.42;;;;;;;;;;5051618;28;20120;-67
2021/11/14 07:43:36;;;;;;;30.52;17.48;;;;;;;;;;5050590;28;20500;-67
2021/11/14 07:46:03;;;;;;;32.42;19.20;;;;;;;;;;5053193;28;20053;-66
2021/11/14 07:48:29;;;;;;;31.23;15.82;;;;;;;;;;5053386;28;20028;-66
2021/11/14 07:50:57;;;;;;;31.58;16.88;;;;;;;;;;5052480;28;20116;-67
2021/11/14 07:53:23;;;;;;;35.15;17.90;;;;;;;;;;5052313;28;20017;-67
2021/11/14 07:55:49;;;;;;;35.08;16.92;;;;;;;;;;5044023;28;20476;-67
2021/11/14 07:58:16;;;;;;;31.60;17.15;;;;;;;;;;5052739;28;20033;-66
2021/11/14 08:00:42;;;;;;;34.15;16.88;;;;;;;;;;5050623;28;20025;-66
2021/11/14 08:03:10;;;;;;;33.25;17.60;;;;;;;;;;5051800;28;20037;-67
2021/11/14 08:05:37;;;;;;;34.42;18.10;;;;;;;;;;5050612;28;20118;-67
2021/11/14 08:08:03;;;;;;;32.45;16.25;;;;;;;;;;5051334;28;20025;-67
2021/11/14 08:10:31;;;;;;;30.40;16.85;;;;;;;;;;5051666;28;20017;-67
2021/11/14 08:12:57;;;;;;;30.77;16.63;;;;;;;;;;5050216;28;20017;-67
2021/11/14 08:15:23;;;;;;;31.05;16.60;;;;;;;;;;5051630;28;20017;-67
2021/11/14 08:17:49;;;;;;;28.17;16.10;;;;;;;;;;5051899;28;20040;-71
2021/11/14 08:20:16;;;;;;;28.67;16.33;;;;;;;;;;5050871;28;20111;-71
2021/11/14 08:22:42;;;;;;;31.73;17.23;;;;;;;;;;5049524;28;20115;-71
2021/11/14 08:25:08;;;;;;;30.95;18.67;;;;;;;;;;5051435;28;20032;-70
2021/11/14 08:27:36;;;;;;;31.98;16.73;;;;;;;;;;5050425;28;20043;-67
2021/11/14 08:30:03;;;;;;;31.08;17.23;;;;;;;;;;5052023;28;20537;-66
2021/11/14 08:32:29;;;;;;;29.25;17.05;;;;;;;;;;5037911;28;20026;-66
2021/11/14 08:34:55;;;;;;;28.58;15.75;;;13.90;99.90;;;;;;5032091;28;20029;-67
2021/11/14 08:37:21;;;;;;;28.15;15.70;;;8.40;99.90;;;;;;5042755;28;20028;-66
2021/11/14 08:39:48;;;;;;;30.98;17.60;;;8.20;99.90;;;;;;5051301;28;20017;-67
2021/11/14 08:42:14;;;;;;;30.08;15.82;;;8.30;99.90;;;;;;5051272;28;20460;-67
2021/11/14 08:44:43;;;;;;;29.08;16.05;;;8.30;99.90;;;;;;5037640;28;20124;-67
2021/11/14 08:47:09;;;;;;;28.08;15.82;;;;;;;;;;5030405;28;20025;-66
2021/11/14 08:49:36;;;;;;;30.00;17.35;;;;;;;;;;5030310;28;20056;-66
2021/11/14 08:52:02;;;;;;;32.38;17.25;;;;;;;;;;5051110;28;20033;-67
2021/11/14 08:54:28;;;;;;;29.23;17.17;;;;;;;;;;5051550;28;20034;-69
2021/11/14 08:56:54;;;;;;;31.45;19.40;;;;;;;;;;5031617;28;20022;-67
2021/11/14 08:59:20;;;;;;;30.83;18.83;;;;;;;;;;5031506;28;20057;-69
2021/11/14 09:01:46;;;;;;;29.73;17.40;;;;;;;;;;5030946;28;20481;-70
2021/11/14 09:04:12;;;;;;;29.88;16.45;;;;;;;;;;5030052;28;20029;-67
2021/11/14 09:06:39;;;;;;;28.15;16.08;;;;;;;;;;5032419;28;20492;-66
2021/11/14 09:09:06;;;;;;;29.92;17.33;;;;;;;;;;5050794;28;20110;-68
2021/11/14 09:11:32;;;;;;;31.60;17.67;;;;;;;;;;5050898;28;20025;-68
2021/11/14 09:13:58;;;;;;;30.67;17.42;;;;;;;;;;5049712;28;20023;-64
2021/11/14 09:16:27;;;;;;;32.13;17.48;;;;;;;;;;5049536;28;20028;-67
2021/11/14 09:18:55;;;;;;;32.45;17.70;;;;;;;;;;5048823;28;20082;-67
2021/11/14 09:21:21;;;;;;;33.40;20.10;;;;;;;;;;5050617;28;20365;-66
2021/11/14 09:23:47;;;;;;;31.58;17.48;;;;;;;;;;5049236;28;20116;-71
2021/11/14 09:26:13;;;;;;;30.77;17.58;;;;;;;;;;5049637;28;20029;-70
2021/11/14 09:28:42;;;;;;;33.20;19.00;;;;;;;;;;5050767;28;20029;-71
2021/11/14 09:31:09;;;;;;;32.97;19.25;;;;;;;;;;5050362;28;20124;-71
2021/11/14 09:33:36;;;;;;;32.53;17.67;;;;;;;;;;5045843;28;20059;-70
2021/11/14 09:36:02;;;;;;;32.55;18.85;;;;;;;;;;5046083;28;20477;-72
2021/11/14 09:38:28;;;;;;;32.58;19.48;;;;;;;;;;5050275;28;20112;-70
2021/11/14 09:40:54;;;;;;;34.85;19.58;;;;;;;;;;5050688;28;20024;-70
2021/11/14 09:43:20;;;;;;;32.97;18.52;;;;;;;;;;5045480;28;20401;-71
2021/11/14 09:45:46;;;;;;;34.30;19.38;;;;;;;;;;5030868;28;20105;-71
2021/11/14 09:48:12;;;;;;;34.75;19.75;;;;;;;;;;5030854;28;20030;-69
2021/11/14 09:50:38;;;;;;;32.17;18.13;;;;;;;;;;5030423;28;20028;-69
2021/11/14 09:53:05;;;;;;;32.67;18.63;;;;;;;;;;5031776;28;20447;-69
2021/11/14 09:55:35;;;;;;;32.40;17.60;;;;;;;;;;5049036;28;20025;-69
2021/11/14 09:58:02;;;;;;;30.42;19.05;;;;;;;;;;5049196;28;20024;-69
2021/11/14 10:00:28;;;;;;;37.15;22.05;;;;;;;;;;4697049;28;9999679;-68
2021/11/14 10:02:54;;;;;;;33.25;19.45;;;;;;;;;;5047364;28;20415;-69
2021/11/14 10:05:20;;;;;;;33.75;19.73;;;;;;;;;;5045421;28;20389;-69
2021/11/14 10:07:53;;;;;;;34.40;20.73;;;;;;;;;;5047142;28;20117;-69
2021/11/14 10:10:19;;;;;;;35.03;20.25;;;;;;;;;;5045925;28;20017;-69
2021/11/14 10:12:45;;;;;;;33.60;19.83;;;;;;;;;;5045896;28;20028;-69
2021/11/14 10:15:13;;;;;;;36.28;19.85;;;;;;;;;;5046063;28;20106;-69
2021/11/14 10:17:40;;;;;;;35.08;20.38;;;;;;;;;;5039117;28;20431;-69
2021/11/14 10:20:08;;;;;;;33.65;19.02;;;;;;;;;;5027479;28;20026;-69
2021/11/14 10:22:35;;;;;;;31.42;17.95;;;;;;;;;;5027893;28;20021;-69
2021/11/14 10:25:01;;;;;;;33.45;18.55;;;;;;;;;;5027676;28;20400;-69
2021/11/14 10:27:28;;;;;;;35.25;19.83;;;;;;;;;;5026709;28;20026;-68
2021/11/14 10:29:54;;;;;;;32.35;19.05;;;;;;;;;;5037038;28;20025;-69
2021/11/14 10:32:21;;;;;;;32.60;18.60;;;;;;;;;;5047197;28;20053;-69
2021/11/14 10:34:51;;;;;;;30.92;17.15;;;;;;;;;;5047213;28;20160;-69
2021/11/14 10:37:21;;;;;;;29.05;17.80;;;;;;;;;;5045709;28;20489;-70
2021/11/14 10:39:55;;;;;;;28.92;18.50;;;;;;;;;;5045658;28;20456;-70
2021/11/14 10:42:21;;;;;;;30.40;18.42;;;;;;;;;;5032658;28;20068;-68
2021/11/14 10:44:48;;;;;;;30.15;17.20;;;;;;;;;;5027233;28;20372;-69
2021/11/14 10:47:20;;;;;;;32.10;18.60;;;;;;;;;;5027020;28;20371;-69
2021/11/14 10:50:04;;;;;;;36.05;19.13;;;;;;;;;;5027111;28;20547;-69
2021/11/14 10:52:31;;;;;;;31.75;19.08;;;;;;;;;;5046868;28;20060;-69
2021/11/14 10:54:59;;;;;;;30.58;18.30;;;;;;;;;;5044792;28;20129;-69
2021/11/14 10:57:26;;;;;;;29.75;19.23;;;;;;;;;;5046927;28;20064;-70
2021/11/14 10:59:52;;;;;;;32.78;18.05;;;;;;;;;;5044943;28;20538;-68
2021/11/14 11:02:20;;;;;;;31.75;19.15;;;;;;;;;;5026783;28;20029;-69
2021/11/14 11:04:49;;;;;;;30.15;17.98;;;;;;;;;;5028644;28;20057;-69
2021/11/14 11:07:15;;;;;;;31.52;18.23;;;;;;;;;;5029403;28;20100;-70
2021/11/14 11:09:43;;;;;;;31.20;18.33;;;;;;;;;;5030357;28;20053;-70
2021/11/14 11:12:29;;;;;;;32.42;18.65;;;;;;;;;;5034818;28;20056;-69
2021/11/14 11:14:57;;;;;;;33.65;18.90;;;;;;;;;;5048902;28;20024;-69
2021/11/14 11:17:23;;;;;;;30.43;17.73;;;;;;;;;;5050527;28;20092;-69
2021/11/14 11:19:49;;;;;;;29.58;18.40;;;;;;;;;;5048807;28;20274;-69
2021/11/14 11:22:15;;;;;;;31.58;19.13;;;;;;;;;;5049970;28;20025;-70
2021/11/14 11:24:51;;;;;;;28.38;17.73;;;;;;;;;;5041263;28;20485;-69
2021/11/14 11:27:18;;;;;;;32.10;19.63;;;;;;;;;;5030050;28;20551;-69
2021/11/14 11:29:44;;;;;;;28.63;21.20;;;8.40;99.90;;;;;;5029517;28;20140;-69
2021/11/14 11:32:10;;;;;;;30.30;19.33;;;;;;;;;;5032644;28;20085;-70
2021/11/14 11:34:38;;;;;;;27.55;19.40;;;;;;;;;;5030564;28;20654;-70
2021/11/14 11:37:04;;;;;;;30.07;20.47;;;;;;;;;;5041632;28;20013;-69
2021/11/14 11:39:31;;;;;;;27.60;20.15;;;;;;;;;;5051444;28;20119;-70
2021/11/14 11:41:59;;;;;;;29.90;20.38;;;;;;;;;;5052343;28;20025;-70
2021/11/14 11:44:26;;;;;;;29.15;20.35;;;;;;;;;;5052721;28;20029;-70
2021/11/14 11:46:53;;;;;;;27.23;20.30;;;;;;;;;;5052739;28;20032;-70
2021/11/14 11:49:26;;;;;;;28.67;20.40;;;;;;;;;;5040781;28;20026;-70
2021/11/14 11:51:54;;;;;;;27.35;19.40;;;;;;;;;;5032160;28;20025;-70
2021/11/14 11:54:22;;;;;;;29.13;21.60;;;;;;;;;;5031448;28;20071;-70
2021/11/14 11:56:49;;;;;;;26.50;20.15;;;;;;;;;;5032614;28;20017;-70
2021/11/14 11:59:20;;;;;;;26.55;19.23;;;;;;;;;;5039118;28;20677;-70
2021/11/14 12:01:54;;;;;;;27.75;18.77;;;;;;;;;;5072694;22;20371;-69
2021/11/14 12:04:20;;;;;;;26.40;18.00;;;;;;;;;;5034515;28;20377;-69
2021/11/14 12:06:56;;;;;;;27.88;19.73;;;;;;;;;;5034788;28;20511;-70
2021/11/14 12:09:24;;;;;;;27.77;19.05;;;;;;;;;;5035223;28;20059;-71
2021/11/14 12:11:50;;;;;;;28.13;20.30;;;;;;;;;;5034123;28;20021;-70
2021/11/14 12:14:30;;;;;;;26.75;19.23;;;;;;;;;;5035966;28;20477;-70
2021/11/14 12:16:58;;;;;;;28.05;19.80;;;;;;;;;;5034656;28;20017;-70
2021/11/14 12:19:25;;;;;;;;;;;;;;;;;;5035484;28;20370;-70
2021/11/14 12:21:55;;;;;;;28.20;19.38;;;;;;;;;;5033900;28;19924;-70
2021/11/14 12:24:21;;;;;;;30.08;19.63;;;;;;;;;;5034276;28;20025;-69
2021/11/14 12:26:47;;;;;;;27.65;19.42;;;;;;;;;;5035259;28;20092;-68
2021/11/14 12:29:28;;;;;;;25.98;19.48;;;;;;;;;;5034236;28;20026;-69
2021/11/14 12:31:56;;;;;;;28.77;20.05;;;;;;;;;;5034793;28;20069;-70
2021/11/14 12:34:24;;;;;;;31.52;20.83;;;;;;;;;;5034422;28;20108;-70
2021/11/14 12:36:50;;;;;;;31.02;22.35;;;;;;;;;;5034040;28;20441;-70
2021/11/14 12:39:24;;;;;;;29.92;20.15;;;;;;;;;;5035216;28;20029;-70
2021/11/14 12:41:50;;;;;;;28.48;21.42;;;;;;;;;;5034847;28;20370;-70
2021/11/14 12:44:30;;;;;;;28.63;19.92;;;;;;;;;;5033585;28;20071;-69
2021/11/14 12:46:56;;;;;;;32.40;21.83;;;;;;;;;;5034554;28;20026;-69
2021/11/14 12:49:22;;;;;;;31.55;21.63;;;;;;;;;;5033433;28;20055;-69
2021/11/14 12:51:52;;;;;;;30.55;21.90;;;;;;;;;;5032349;28;20059;-68
2021/11/14 12:54:18;;;;;;;30.08;21.25;;;;;;;;;;5034246;28;20064;-69
2021/11/14 12:56:46;;;;;;;28.83;20.13;;;;;;;;;;5031949;28;20327;-67
2021/11/14 12:59:24;;;;;;;30.45;21.23;;;;;;;;;;5031357;28;20457;-67
2021/11/14 13:01:57;;;;;;;27.55;19.48;;;;;;;;;;5032340;28;20029;-67
2021/11/14 13:04:33;;;;;;;28.17;17.90;;;;;;;;;;4556117;28;10002858;-68
2021/11/14 13:07:00;;;;;;;29.88;20.45;;;;;;;;;;5024166;28;20473;-67
2021/11/14 13:09:28;;;;;;;29.35;20.23;;;;;;;;;;5028453;28;20037;-68
2021/11/14 13:12:10;;;;;;;27.20;19.05;;;;;;;;;;5028891;28;20025;-67
2021/11/14 13:14:40;;;;;;;31.27;20.23;;;;;;;;;;5027980;28;20028;-68
2021/11/14 13:17:07;;;;;;;30.70;22.35;;;;;;;;;;5027977;28;20013;-68
2021/11/14 13:19:33;;;;;;;29.30;18.63;;;;;;;;;;5029636;28;20535;-67
2021/11/14 13:21:59;;;;;;;29.52;20.48;;;;;;;;;;5028205;28;20029;-68
2021/11/14 13:24:25;;;;;;;32.80;19.92;;;;;;;;;;5028289;28;20116;-69
2021/11/14 13:26:58;;;;;;;28.30;19.77;;;;;;;;;;5029205;28;20086;-68
2021/11/14 13:29:29;;;;;;;30.67;20.17;;;;;;;;;;5027895;28;20033;-66
2021/11/14 13:31:56;;;;;;;26.55;18.48;;;;;;;;;;5029408;28;20041;-68
2021/11/14 13:34:24;;;;;;;28.70;19.73;;;;;;;;;;5029454;28;20497;-67
2021/11/14 13:36:51;;;;;;;28.58;18.52;;;;;;;;;;5029035;28;20028;-67
2021/11/14 13:39:27;;;;;;;28.93;19.87;;;;;;;;;;5029721;28;20040;-67
2021/11/14 13:41:57;;;;;;;27.45;18.90;;;;;;;;;;5029221;28;20444;-67
2021/11/14 13:44:29;;;;;;;28.08;19.42;;;;;;;;;;5029261;28;20029;-67
2021/11/14 13:47:05;;;;;;;28.02;19.08;;;;;;;;;;5028046;28;20048;-67
2021/11/14 13:49:31;;;;;;;27.25;19.05;;;;;;;;;;5028846;28;20025;-68
2021/11/14 13:51:57;;;;;;;26.60;18.90;;;;;;;;;;5027691;28;20037;-67
2021/11/14 13:54:24;;;;;;;28.95;18.98;;;;;;;;;;5027502;28;20025;-67
2021/11/14 13:56:50;;;;;;;27.15;19.42;;;;;;;;;;5029285;28;20115;-67
2021/11/14 13:59:16;;;;;;;27.75;19.05;;;;;;;;;;5028316;28;20030;-67
2021/11/14 14:01:51;;;;;;;26.60;18.52;;;;;;;;;;5028409;28;20062;-67
2021/11/14 14:04:18;;;;;;;26.50;17.88;;;;;;;;;;5026825;28;20034;-67
2021/11/14 14:06:44;;;;;;;25.00;17.45;;;;;;;;;;5029153;28;20558;-67
2021/11/14 14:09:16;;;;;;;27.05;18.15;;;;;;;;;;5029108;28;20087;-67
2021/11/14 14:11:43;;;;;;;26.27;17.25;;;;;;;;;;5027529;28;20435;-67
2021/11/14 14:14:09;;;;;;;26.17;17.75;;;;;;;;;;5027595;28;20017;-67
2021/11/14 14:16:35;;;;;;;27.05;17.73;;;;;;;;;;5027568;28;20152;-67
2021/11/14 14:19:05;;;;;;;26.67;18.27;;;;;;;;;;5028980;28;20363;-67
2021/11/14 14:21:31;;;;;;;27.73;18.63;;;;;;;;;;5027557;28;20036;-67